createdAt,value
2017-04-04T00:00:58.734Z,1020.52
2017-04-04T00:02:11.248Z,1020.5
2017-04-04T00:03:23.773Z,1020.53
2017-04-04T00:04:36.018Z,1020.51
2017-04-04T00:05:47.937Z,1020.5
2017-04-04T00:07:00.474Z,1020.53
2017-04-04T00:08:12.977Z,1020.53
2017-04-04T00:09:25.453Z,1020.48
2017-04-04T00:10:37.972Z,1020.5
2017-04-04T00:11:50.535Z,1020.49
2017-04-04T00:13:03.061Z,1020.49
2017-04-04T00:14:15.581Z,1020.45
2017-04-04T00:15:27.802Z,1020.43
2017-04-04T00:16:39.725Z,1020.43
2017-04-04T00:17:52.266Z,1020.42
2017-04-04T00:19:04.811Z,1020.42
2017-04-04T00:20:17.582Z,1020.39
2017-04-04T00:21:29.810Z,1020.4
2017-04-04T00:22:42.352Z,1020.42
2017-04-04T00:23:54.577Z,1020.43
2017-04-04T00:25:07.128Z,1020.43
2017-04-04T00:26:19.646Z,1020.43
2017-04-04T00:27:32.190Z,1020.39
2017-04-04T00:28:44.736Z,1020.42
2017-04-04T00:29:57.288Z,1020.41
2017-04-04T00:31:09.817Z,1020.44
2017-04-04T00:32:22.346Z,1020.41
2017-04-04T00:33:34.559Z,1020.4
2017-04-04T00:34:47.088Z,1020.37
2017-04-04T00:35:59.612Z,1020.38
2017-04-04T00:37:11.853Z,1020.39
2017-04-04T00:38:23.774Z,1020.33
2017-04-04T00:39:35.992Z,1020.33
2017-04-04T00:40:48.542Z,1020.33
2017-04-04T00:42:01.059Z,1020.27
2017-04-04T00:43:13.605Z,1020.3
2017-04-04T00:44:25.847Z,1020.28
2017-04-04T00:45:38.379Z,1020.21
2017-04-04T00:46:50.902Z,1020.24
2017-04-04T00:48:03.442Z,1020.21
2017-04-04T00:49:15.364Z,1020.18
2017-04-04T00:50:27.918Z,1020.18
2017-04-04T00:51:40.434Z,1020.19
2017-04-04T00:52:52.975Z,1020.18
2017-04-04T00:54:05.514Z,1020.17
2017-04-04T00:55:18.018Z,1020.2
2017-04-04T00:56:30.564Z,1020.21
2017-04-04T00:57:42.809Z,1020.19
2017-04-04T00:58:55.592Z,1020.15
2017-04-04T01:00:08.145Z,1020.15
2017-04-04T01:01:20.697Z,1020.19
2017-04-04T01:02:32.897Z,1020.15
2017-04-04T01:03:45.481Z,1020.14
2017-04-04T01:04:57.710Z,1020.12
2017-04-04T01:06:10.255Z,1020.11
2017-04-04T01:07:22.798Z,1020.11
2017-04-04T01:08:35.326Z,1020.13
2017-04-04T01:09:47.839Z,1020.15
2017-04-04T01:11:00.381Z,1020.15
2017-04-04T01:12:12.909Z,1020.17
2017-04-04T01:13:25.130Z,1020.12
2017-04-04T01:14:37.052Z,1020.14
2017-04-04T01:15:49.552Z,1020.16
2017-04-04T01:17:01.801Z,1020.16
2017-04-04T01:18:14.339Z,1020.15
2017-04-04T01:19:25.957Z,1020.13
2017-04-04T01:20:38.511Z,1020.14
2017-04-04T01:21:51.070Z,1020.11
2017-04-04T01:23:03.627Z,1020.13
2017-04-04T01:24:15.872Z,1020.11
2017-04-04T01:25:28.695Z,1020.09
2017-04-04T01:26:41.229Z,1020.08
2017-04-04T01:27:53.761Z,1020.06
2017-04-04T01:29:06.312Z,1020.07
2017-04-04T01:30:18.254Z,1020.06
2017-04-04T01:31:30.823Z,1020.06
2017-04-04T01:32:43.343Z,1020.04
2017-04-04T01:33:55.904Z,1020.08
2017-04-04T01:35:08.114Z,1020.06
2017-04-04T01:36:20.659Z,1020.01
2017-04-04T01:37:33.152Z,1020.06
2017-04-04T01:38:45.365Z,1020.01
2017-04-04T01:39:57.895Z,1020.04
2017-04-04T01:41:10.412Z,1020.01
2017-04-04T01:42:22.963Z,1020.01
2017-04-04T01:43:35.504Z,1020
2017-04-04T01:44:48.054Z,1020.04
2017-04-04T01:46:00.596Z,1020.01
2017-04-04T01:47:12.870Z,1020.01
2017-04-04T01:48:25.392Z,1019.97
2017-04-04T01:49:37.908Z,1019.98
2017-04-04T01:50:50.474Z,1019.95
2017-04-04T01:52:02.705Z,1019.99
2017-04-04T01:53:15.250Z,1019.97
2017-04-04T01:54:27.794Z,1019.96
2017-04-04T01:55:40.316Z,1019.98
2017-04-04T01:56:52.867Z,1020
2017-04-04T01:58:05.398Z,1020
2017-04-04T01:59:17.929Z,1020.02
2017-04-04T02:00:29.870Z,1020.02
2017-04-04T02:01:42.395Z,1019.99
2017-04-04T02:02:54.641Z,1020.03
2017-04-04T02:04:06.891Z,1019.99
2017-04-04T02:05:19.433Z,1019.99
2017-04-04T02:06:31.954Z,1020.04
2017-04-04T02:07:44.173Z,1020.01
2017-04-04T02:08:56.972Z,1019.97
2017-04-04T02:10:09.513Z,1019.99
2017-04-04T02:11:21.752Z,1020.03
2017-04-04T02:12:33.981Z,1019.99
2017-04-04T02:13:46.530Z,1019.95
2017-04-04T02:14:59.069Z,1019.97
2017-04-04T02:16:11.568Z,1020
2017-04-04T02:17:23.794Z,1019.99
2017-04-04T02:18:36.320Z,1019.97
2017-04-04T02:19:48.839Z,1019.94
2017-04-04T02:21:01.357Z,1019.94
2017-04-04T02:22:13.880Z,1019.92
2017-04-04T02:23:26.417Z,1019.9
2017-04-04T02:24:38.661Z,1019.89
2017-04-04T02:25:50.886Z,1019.9
2017-04-04T02:27:03.428Z,1019.92
2017-04-04T02:28:15.977Z,1019.9
2017-04-04T02:29:28.478Z,1019.93
2017-04-04T02:30:41.248Z,1019.92
2017-04-04T02:31:53.792Z,1019.98
2017-04-04T02:33:06.015Z,1019.93
2017-04-04T02:34:18.585Z,1019.94
2017-04-04T02:35:31.128Z,1019.93
2017-04-04T02:36:43.377Z,1019.96
2017-04-04T02:37:55.926Z,1019.93
2017-04-04T02:39:08.469Z,1019.93
2017-04-04T02:40:21.011Z,1019.98
2017-04-04T02:41:33.839Z,1019.96
2017-04-04T02:42:45.782Z,1019.93
2017-04-04T02:43:58.349Z,1019.91
2017-04-04T02:45:10.879Z,1019.94
2017-04-04T02:46:23.408Z,1019.92
2017-04-04T02:47:35.340Z,1019.93
2017-04-04T02:48:47.900Z,1019.91
2017-04-04T02:50:00.457Z,1019.94
2017-04-04T02:51:13.004Z,1019.89
2017-04-04T02:52:25.771Z,1019.9
2017-04-04T02:53:38.297Z,1019.89
2017-04-04T02:54:50.812Z,1019.85
2017-04-04T02:56:03.364Z,1019.88
2017-04-04T02:57:15.606Z,1019.88
2017-04-04T02:58:27.829Z,1019.85
2017-04-04T02:59:40.371Z,1019.89
2017-04-04T03:00:52.894Z,1019.85
2017-04-04T03:02:05.440Z,1019.82
2017-04-04T03:03:17.963Z,1019.79
2017-04-04T03:04:30.534Z,1019.81
2017-04-04T03:05:43.051Z,1019.81
2017-04-04T03:06:55.617Z,1019.78
2017-04-04T03:08:08.146Z,1019.82
2017-04-04T03:09:20.663Z,1019.74
2017-04-04T03:10:33.180Z,1019.78
2017-04-04T03:11:45.682Z,1019.75
2017-04-04T03:12:57.930Z,1019.78
2017-04-04T03:14:10.477Z,1019.78
2017-04-04T03:15:22.722Z,1019.78
2017-04-04T03:16:34.969Z,1019.78
2017-04-04T03:17:47.478Z,1019.76
2017-04-04T03:18:59.681Z,1019.77
2017-04-04T03:20:12.228Z,1019.77
2017-04-04T03:21:24.451Z,1019.74
2017-04-04T03:22:37.000Z,1019.75
2017-04-04T03:23:49.544Z,1019.73
2017-04-04T03:25:02.378Z,1019.78
2017-04-04T03:26:14.602Z,1019.76
2017-04-04T03:27:27.131Z,1019.74
2017-04-04T03:28:39.673Z,1019.73
2017-04-04T03:29:52.219Z,1019.76
2017-04-04T03:31:04.457Z,1019.76
2017-04-04T03:32:16.986Z,1019.75
2017-04-04T03:33:29.486Z,1019.75
2017-04-04T03:34:42.006Z,1019.76
2017-04-04T03:35:54.569Z,1019.71
2017-04-04T03:37:06.520Z,1019.76
2017-04-04T03:38:19.065Z,1019.75
2017-04-04T03:39:31.591Z,1019.75
2017-04-04T03:40:44.110Z,1019.77
2017-04-04T03:41:56.651Z,1019.76
2017-04-04T03:43:09.182Z,1019.75
2017-04-04T03:44:21.712Z,1019.81
2017-04-04T03:45:34.271Z,1019.79
2017-04-04T03:46:46.804Z,1019.8
2017-04-04T03:47:59.311Z,1019.82
2017-04-04T03:49:11.847Z,1019.8
2017-04-04T03:50:24.377Z,1019.81
2017-04-04T03:51:36.916Z,1019.83
2017-04-04T03:52:49.469Z,1019.79
2017-04-04T03:54:02.058Z,1019.81
2017-04-04T03:55:14.608Z,1019.86
2017-04-04T03:56:27.129Z,1019.91
2017-04-04T03:57:39.928Z,1019.92
2017-04-04T03:58:52.149Z,1019.86
2017-04-04T04:00:04.394Z,1019.91
2017-04-04T04:01:16.912Z,1019.93
2017-04-04T04:02:29.462Z,1019.92
2017-04-04T04:03:42.282Z,1019.89
2017-04-04T04:04:54.203Z,1019.93
2017-04-04T04:06:06.745Z,1019.91
2017-04-04T04:07:19.292Z,1019.88
2017-04-04T04:08:31.567Z,1019.85
2017-04-04T04:09:44.083Z,1019.9
2017-04-04T04:10:56.606Z,1019.9
2017-04-04T04:12:09.153Z,1019.87
2017-04-04T04:13:21.374Z,1019.89
2017-04-04T04:14:33.323Z,1019.92
2017-04-04T04:15:45.540Z,1019.95
2017-04-04T04:16:58.089Z,1019.94
2017-04-04T04:18:10.608Z,1019.98
2017-04-04T04:19:22.851Z,1019.99
2017-04-04T04:20:35.374Z,1019.94
2017-04-04T04:21:47.917Z,1019.97
2017-04-04T04:23:00.456Z,1019.92
2017-04-04T04:24:12.990Z,1019.92
2017-04-04T04:25:25.533Z,1019.9
2017-04-04T04:26:38.082Z,1019.92
2017-04-04T04:27:50.630Z,1019.89
2017-04-04T04:29:03.146Z,1019.89
2017-04-04T04:30:15.381Z,1019.92
2017-04-04T04:31:27.615Z,1019.92
2017-04-04T04:32:40.159Z,1019.95
2017-04-04T04:33:52.677Z,1019.93
2017-04-04T04:35:05.215Z,1019.95
2017-04-04T04:36:17.747Z,1019.97
2017-04-04T04:37:30.294Z,1019.94
2017-04-04T04:38:42.542Z,1019.93
2017-04-04T04:39:55.060Z,1019.93
2017-04-04T04:41:07.587Z,1019.86
2017-04-04T04:42:19.819Z,1019.89
2017-04-04T04:43:32.350Z,1019.95
2017-04-04T04:44:44.890Z,1019.97
2017-04-04T04:45:57.111Z,1019.96
2017-04-04T04:47:09.035Z,1019.99
2017-04-04T04:48:21.553Z,1019.98
2017-04-04T04:49:34.076Z,1019.96
2017-04-04T04:50:46.619Z,1019.97
2017-04-04T04:51:59.445Z,1019.99
2017-04-04T04:53:11.711Z,1020
2017-04-04T04:54:23.937Z,1020
2017-04-04T04:55:36.478Z,1020.04
2017-04-04T04:56:48.995Z,1020
2017-04-04T04:58:01.517Z,1020.03
2017-04-04T04:59:14.066Z,1020.03
2017-04-04T05:00:25.993Z,1020.09
2017-04-04T05:01:38.513Z,1020.04
2017-04-04T05:02:51.285Z,1020.05
2017-04-04T05:04:03.800Z,1020.01
2017-04-04T05:05:16.350Z,1020.04
2017-04-04T05:06:28.892Z,1020
2017-04-04T05:07:41.388Z,1020.02
2017-04-04T05:08:53.905Z,1020.04
2017-04-04T05:10:05.555Z,1019.98
2017-04-04T05:11:18.055Z,1020.04
2017-04-04T05:12:30.589Z,1020.05
2017-04-04T05:13:43.111Z,1020.04
2017-04-04T05:14:55.331Z,1020.03
2017-04-04T05:16:07.834Z,1020.05
2017-04-04T05:17:20.358Z,1020.01
2017-04-04T05:18:32.910Z,1020.06
2017-04-04T05:19:45.424Z,1020.01
2017-04-04T05:20:57.960Z,1020.06
2017-04-04T05:22:10.493Z,1020.06
2017-04-04T05:23:23.051Z,1020.09
2017-04-04T05:24:35.512Z,1020.09
2017-04-04T05:25:48.037Z,1020.1
2017-04-04T05:27:00.569Z,1020.13
2017-04-04T05:28:13.097Z,1020.08
2017-04-04T05:29:25.409Z,1020.13
2017-04-04T05:30:37.966Z,1020.09
2017-04-04T05:31:50.210Z,1020.14
2017-04-04T05:33:02.458Z,1020.15
2017-04-04T05:34:15.024Z,1020.18
2017-04-04T05:35:27.549Z,1020.2
2017-04-04T05:36:40.065Z,1020.18
2017-04-04T05:37:52.612Z,1020.17
2017-04-04T05:39:04.831Z,1020.18
2017-04-04T05:40:17.353Z,1020.17
2017-04-04T05:41:29.901Z,1020.17
2017-04-04T05:42:42.422Z,1020.2
2017-04-04T05:43:54.640Z,1020.22
2017-04-04T05:45:07.164Z,1020.28
2017-04-04T05:46:19.735Z,1020.23
2017-04-04T05:47:32.282Z,1020.24
2017-04-04T05:48:44.528Z,1020.24
2017-04-04T05:49:57.051Z,1020.23
2017-04-04T05:51:09.591Z,1020.2
2017-04-04T05:52:22.116Z,1020.27
2017-04-04T05:53:34.661Z,1020.26
2017-04-04T05:54:47.178Z,1020.23
2017-04-04T05:55:59.675Z,1020.26
2017-04-04T05:57:12.267Z,1020.2
2017-04-04T05:58:24.793Z,1020.19
2017-04-04T05:59:37.040Z,1020.2
2017-04-04T06:00:49.585Z,1020.25
2017-04-04T06:02:02.121Z,1020.17
2017-04-04T06:03:14.354Z,1020.17
2017-04-04T06:04:26.625Z,1020.14
2017-04-04T06:05:38.893Z,1020.15
2017-04-04T06:06:51.434Z,1020.19
2017-04-04T06:08:03.662Z,1020.24
2017-04-04T06:09:15.924Z,1020.22
2017-04-04T06:10:27.829Z,1020.19
2017-04-04T06:11:40.065Z,1020.22
2017-04-04T06:12:52.621Z,1020.22
2017-04-04T06:14:04.840Z,1020.22
2017-04-04T06:15:17.388Z,1020.29
2017-04-04T06:16:29.633Z,1020.34
2017-04-04T06:17:42.205Z,1020.37
2017-04-04T06:18:54.699Z,1020.34
2017-04-04T06:20:07.238Z,1020.31
2017-04-04T06:21:19.519Z,1020.34
2017-04-04T06:22:31.752Z,1020.32
2017-04-04T06:23:44.277Z,1020.3
2017-04-04T06:24:56.802Z,1020.32
2017-04-04T06:26:09.325Z,1020.39
2017-04-04T06:27:21.543Z,1020.38
2017-04-04T06:28:34.069Z,1020.32
2017-04-04T06:29:46.614Z,1020.36
2017-04-04T06:30:59.173Z,1020.31
2017-04-04T06:32:11.720Z,1020.28
2017-04-04T06:33:24.248Z,1020.21
2017-04-04T06:34:36.786Z,1020.24
2017-04-04T06:35:49.017Z,1020.25
2017-04-04T06:37:01.529Z,1020.32
2017-04-04T06:38:13.737Z,1020.27
2017-04-04T06:39:26.261Z,1020.29
2017-04-04T06:40:38.752Z,1020.24
2017-04-04T06:41:50.701Z,1020.22
2017-04-04T06:43:03.243Z,1020.19
2017-04-04T06:44:15.761Z,1020.22
2017-04-04T06:45:28.286Z,1020.16
2017-04-04T06:46:40.807Z,1020.27
2017-04-04T06:47:53.355Z,1020.28
2017-04-04T06:49:05.872Z,1020.28
2017-04-04T06:50:18.115Z,1020.32
2017-04-04T06:51:30.665Z,1020.21
2017-04-04T06:52:43.225Z,1020.19
2017-04-04T06:53:55.475Z,1020.28
2017-04-04T06:55:07.696Z,1020.19
2017-04-04T06:56:20.242Z,1020.2
2017-04-04T06:57:32.796Z,1020.14
2017-04-04T06:58:45.346Z,1020.19
2017-04-04T06:59:57.587Z,1020.27
2017-04-04T07:01:09.529Z,1020.22
2017-04-04T07:02:22.073Z,1020.15
2017-04-04T07:03:34.599Z,1020.19
2017-04-04T07:04:46.863Z,1020.1
2017-04-04T07:05:59.119Z,1020.08
2017-04-04T07:07:11.365Z,1020.16
2017-04-04T07:08:23.904Z,1020.17
2017-04-04T07:09:36.155Z,1020.19
2017-04-04T07:10:48.374Z,1020.2
2017-04-04T07:12:00.896Z,1020.19
2017-04-04T07:13:13.133Z,1020.13
2017-04-04T07:14:25.336Z,1020.09
2017-04-04T07:15:37.873Z,1020.14
2017-04-04T07:16:50.381Z,1020.19
2017-04-04T07:18:02.939Z,1020.22
2017-04-04T07:19:15.493Z,1020.18
2017-04-04T07:20:28.042Z,1020.18
2017-04-04T07:21:40.585Z,1020.11
2017-04-04T07:22:53.130Z,1020.13
2017-04-04T07:24:05.376Z,1020.1
2017-04-04T07:25:17.622Z,1020.17
2017-04-04T07:26:30.136Z,1020.1
2017-04-04T07:27:42.645Z,1020.09
2017-04-04T07:28:54.860Z,1020.14
2017-04-04T07:30:07.459Z,1020.1
2017-04-04T07:31:20.003Z,1020.12
2017-04-04T07:32:32.540Z,1020.16
2017-04-04T07:33:44.763Z,1020.2
2017-04-04T07:34:57.011Z,1020.25
2017-04-04T07:36:09.260Z,1020.22
2017-04-04T07:37:21.481Z,1020.25
2017-04-04T07:38:34.020Z,1020.26
2017-04-04T07:39:46.552Z,1020.22
2017-04-04T07:40:59.323Z,1020.2
2017-04-04T07:42:11.569Z,1020.24
2017-04-04T07:43:23.811Z,1020.17
2017-04-04T07:44:36.032Z,1020.15
2017-04-04T07:45:48.578Z,1020.25
2017-04-04T07:47:01.102Z,1020.3
2017-04-04T07:48:13.645Z,1020.24
2017-04-04T07:49:25.883Z,1020.27
2017-04-04T07:50:38.395Z,1020.27
2017-04-04T07:51:50.936Z,1020.28
2017-04-04T07:53:03.503Z,1020.27
2017-04-04T07:54:15.727Z,1020.27
2017-04-04T07:55:27.973Z,1020.24
2017-04-04T07:56:40.519Z,1020.26
2017-04-04T07:57:52.754Z,1020.24
2017-04-04T07:59:05.285Z,1020.25
2017-04-04T08:00:17.546Z,1020.26
2017-04-04T08:01:29.774Z,1020.19
2017-04-04T08:02:42.298Z,1020.17
2017-04-04T08:03:54.841Z,1020.23
2017-04-04T08:05:07.361Z,1020.26
2017-04-04T08:06:19.925Z,1020.23
2017-04-04T08:07:32.429Z,1020.22
2017-04-04T08:08:44.668Z,1020.28
2017-04-04T08:09:57.200Z,1020.31
2017-04-04T08:11:09.746Z,1020.28
2017-04-04T08:12:22.268Z,1020.3
2017-04-04T08:13:34.813Z,1020.34
2017-04-04T08:14:47.058Z,1020.29
2017-04-04T08:15:59.629Z,1020.33
2017-04-04T08:17:12.196Z,1020.31
2017-04-04T08:18:24.446Z,1020.3
2017-04-04T08:19:36.991Z,1020.28
2017-04-04T08:20:49.563Z,1020.28
2017-04-04T08:22:02.097Z,1020.28
2017-04-04T08:23:14.351Z,1020.3
2017-04-04T08:24:26.596Z,1020.32
2017-04-04T08:25:38.825Z,1020.28
2017-04-04T08:26:51.365Z,1020.32
2017-04-04T08:28:03.601Z,1020.37
2017-04-04T08:29:15.833Z,1020.36
2017-04-04T08:30:28.393Z,1020.41
2017-04-04T08:31:40.621Z,1020.42
2017-04-04T08:32:53.160Z,1020.44
2017-04-04T08:34:05.666Z,1020.42
2017-04-04T08:35:18.189Z,1020.5
2017-04-04T08:36:30.438Z,1020.51
2017-04-04T08:37:42.082Z,1020.43
2017-04-04T08:38:54.305Z,1020.37
2017-04-04T08:40:06.849Z,1020.45
2017-04-04T08:41:18.817Z,1020.35
2017-04-04T08:42:31.356Z,1020.43
2017-04-04T08:43:43.601Z,1020.59
2017-04-04T08:44:56.154Z,1020.6
2017-04-04T08:46:08.377Z,1020.51
2017-04-04T08:47:20.637Z,1020.56
2017-04-04T08:48:33.144Z,1020.6
2017-04-04T08:49:45.689Z,1020.58
2017-04-04T08:50:58.242Z,1020.56
2017-04-04T08:52:10.498Z,1020.56
2017-04-04T08:53:23.102Z,1020.47
2017-04-04T08:54:35.372Z,1020.54
2017-04-04T08:55:47.590Z,1020.65
2017-04-04T08:57:00.111Z,1020.62
2017-04-04T08:58:12.668Z,1020.6
2017-04-04T08:59:25.219Z,1020.6
2017-04-04T09:00:37.449Z,1020.51
2017-04-04T09:01:49.728Z,1020.31
2017-04-04T09:03:02.258Z,1020.31
2017-04-04T09:04:14.778Z,1020.32
2017-04-04T09:05:26.989Z,1020.32
2017-04-04T09:06:39.534Z,1020.38
2017-04-04T09:07:51.777Z,1020.43
2017-04-04T09:09:03.725Z,1020.47
2017-04-04T09:10:15.945Z,1020.48
2017-04-04T09:11:28.203Z,1020.4
2017-04-04T09:12:40.710Z,1020.46
2017-04-04T09:13:52.957Z,1020.47
2017-04-04T09:15:05.507Z,1020.43
2017-04-04T09:16:17.745Z,1020.44
2017-04-04T09:17:30.300Z,1020.47
2017-04-04T09:18:42.843Z,1020.44
2017-04-04T09:19:55.379Z,1020.46
2017-04-04T09:21:07.604Z,1020.51
2017-04-04T09:22:20.125Z,1020.5
2017-04-04T09:23:32.353Z,1020.46
2017-04-04T09:24:44.570Z,1020.45
2017-04-04T09:25:57.116Z,1020.45
2017-04-04T09:27:09.655Z,1020.43
2017-04-04T09:28:22.182Z,1020.48
2017-04-04T09:29:34.743Z,1020.47
2017-04-04T09:30:47.274Z,1020.47
2017-04-04T09:31:59.535Z,1020.51
2017-04-04T09:33:12.067Z,1020.55
2017-04-04T09:34:24.313Z,1020.53
2017-04-04T09:35:36.901Z,1020.54
2017-04-04T09:36:49.451Z,1020.47
2017-04-04T09:38:01.975Z,1020.53
2017-04-04T09:39:14.214Z,1020.55
2017-04-04T09:40:26.785Z,1020.53
2017-04-04T09:41:39.337Z,1020.49
2017-04-04T09:42:51.580Z,1020.45
2017-04-04T09:44:03.830Z,1020.43
2017-04-04T09:45:16.051Z,1020.38
2017-04-04T09:46:28.301Z,1020.32
2017-04-04T09:47:40.539Z,1020.3
2017-04-04T09:48:53.105Z,1020.21
2017-04-04T09:50:05.359Z,1020.24
2017-04-04T09:51:17.907Z,1020.28
2017-04-04T09:52:30.148Z,1020.3
2017-04-04T09:53:42.098Z,1020.28
2017-04-04T09:54:54.614Z,1020.33
2017-04-04T09:56:07.181Z,1020.34
2017-04-04T09:57:19.415Z,1020.36
2017-04-04T09:58:31.707Z,1020.36
2017-04-04T09:59:43.644Z,1020.38
2017-04-04T10:00:55.845Z,1020.37
2017-04-04T10:02:08.370Z,1020.4
2017-04-04T10:03:20.307Z,1020.4
2017-04-04T10:04:32.553Z,1020.39
2017-04-04T10:05:45.099Z,1020.41
2017-04-04T10:06:57.624Z,1020.34
2017-04-04T10:08:09.891Z,1020.35
2017-04-04T10:09:22.414Z,1020.34
2017-04-04T10:10:34.365Z,1020.3
2017-04-04T10:11:46.892Z,1020.38
2017-04-04T10:12:59.428Z,1020.43
2017-04-04T10:14:11.974Z,1020.4
2017-04-04T10:15:24.494Z,1020.34
2017-04-04T10:16:36.737Z,1020.34
2017-04-04T10:17:49.565Z,1020.35
2017-04-04T10:19:02.114Z,1020.33
2017-04-04T10:20:14.403Z,1020.36
2017-04-04T10:21:26.952Z,1020.34
2017-04-04T10:22:39.179Z,1020.3
2017-04-04T10:23:51.419Z,1020.31
2017-04-04T10:25:03.983Z,1020.22
2017-04-04T10:26:16.508Z,1020.19
2017-04-04T10:27:29.100Z,1020.2
2017-04-04T10:28:41.651Z,1020.15
2017-04-04T10:29:53.874Z,1020.11
2017-04-04T10:31:06.117Z,1020.09
2017-04-04T10:32:18.352Z,1020.06
2017-04-04T10:33:30.911Z,1020.03
2017-04-04T10:34:43.507Z,1020.04
2017-04-04T10:35:56.053Z,1020.05
2017-04-04T10:37:08.604Z,1020.02
2017-04-04T10:38:20.816Z,1020.02
2017-04-04T10:39:33.341Z,1020.06
2017-04-04T10:40:45.862Z,1020.06
2017-04-04T10:41:58.405Z,1020
2017-04-04T10:43:10.693Z,1020
2017-04-04T10:44:22.924Z,1020.01
2017-04-04T10:45:34.867Z,1020.04
2017-04-04T10:46:47.416Z,1020.06
2017-04-04T10:47:59.954Z,1020.05
2017-04-04T10:49:11.950Z,1020.11
2017-04-04T10:50:24.478Z,1020.1
2017-04-04T10:51:36.750Z,1020.05
2017-04-04T10:52:49.295Z,1020.01
2017-04-04T10:54:01.839Z,1019.99
2017-04-04T10:55:13.747Z,1020
2017-04-04T10:56:26.273Z,1020.02
2017-04-04T10:57:38.804Z,1020.08
2017-04-04T10:58:51.050Z,1020.06
2017-04-04T11:00:03.610Z,1020.07
2017-04-04T11:01:16.168Z,1020.03
2017-04-04T11:02:28.713Z,1020.02
2017-04-04T11:03:41.247Z,1020.02
2017-04-04T11:04:53.496Z,1020.02
2017-04-04T11:06:05.721Z,1019.99
2017-04-04T11:07:17.673Z,1019.89
2017-04-04T11:08:30.207Z,1019.82
2017-04-04T11:09:42.452Z,1019.83
2017-04-04T11:10:54.999Z,1019.82
2017-04-04T11:12:07.231Z,1019.74
2017-04-04T11:13:18.877Z,1019.74
2017-04-04T11:14:31.406Z,1019.8
2017-04-04T11:15:43.615Z,1019.78
2017-04-04T11:16:55.242Z,1019.74
2017-04-04T11:18:07.761Z,1019.72
2017-04-04T11:19:20.305Z,1019.69
2017-04-04T11:20:32.855Z,1019.71
2017-04-04T11:21:45.416Z,1019.67
2017-04-04T11:22:57.933Z,1019.72
2017-04-04T11:24:10.161Z,1019.71
2017-04-04T11:25:22.436Z,1019.71
2017-04-04T11:26:34.958Z,1019.74
2017-04-04T11:27:47.204Z,1019.75
2017-04-04T11:28:59.448Z,1019.82
2017-04-04T11:30:11.687Z,1019.78
2017-04-04T11:31:24.240Z,1019.77
2017-04-04T11:32:36.782Z,1019.77
2017-04-04T11:33:48.720Z,1019.71
2017-04-04T11:35:01.253Z,1019.65
2017-04-04T11:36:13.798Z,1019.61
2017-04-04T11:37:26.370Z,1019.51
2017-04-04T11:38:38.939Z,1019.43
2017-04-04T11:39:50.564Z,1019.39
2017-04-04T11:41:03.105Z,1019.42
2017-04-04T11:42:15.653Z,1019.39
2017-04-04T11:43:28.213Z,1019.39
2017-04-04T11:44:40.744Z,1019.39
2017-04-04T11:45:53.287Z,1019.4
2017-04-04T11:47:05.813Z,1019.41
2017-04-04T11:48:18.349Z,1019.39
2017-04-04T11:49:30.905Z,1019.38
2017-04-04T11:50:43.437Z,1019.41
2017-04-04T11:51:55.989Z,1019.41
2017-04-04T11:53:07.941Z,1019.45
2017-04-04T11:54:20.487Z,1019.45
2017-04-04T11:55:32.697Z,1019.4
2017-04-04T11:56:45.203Z,1019.35
2017-04-04T11:57:57.763Z,1019.29
2017-04-04T11:59:10.273Z,1019.31
2017-04-04T12:00:22.519Z,1019.31
2017-04-04T12:01:35.076Z,1019.27
2017-04-04T12:02:47.285Z,1019.33
2017-04-04T12:03:59.828Z,1019.28
2017-04-04T12:05:11.774Z,1019.24
2017-04-04T12:06:24.357Z,1019.26
2017-04-04T12:07:36.909Z,1019.23
2017-04-04T12:08:49.112Z,1019.19
2017-04-04T12:10:01.654Z,1019.19
2017-04-04T12:11:13.880Z,1019.18
2017-04-04T12:12:26.421Z,1019.19
2017-04-04T12:13:38.946Z,1019.18
2017-04-04T12:14:51.206Z,1019.16
2017-04-04T12:16:03.431Z,1019.12
2017-04-04T12:17:16.458Z,1019.15
2017-04-04T12:18:28.981Z,1019.15
2017-04-04T12:19:41.526Z,1019.09
2017-04-04T12:20:54.089Z,1019.03
2017-04-04T12:22:06.614Z,1019.05
2017-04-04T12:23:19.113Z,1019.02
2017-04-04T12:24:31.686Z,1019.05
2017-04-04T12:25:44.211Z,1019.06
2017-04-04T12:26:56.757Z,1019.04
2017-04-04T12:28:09.267Z,1019
2017-04-04T12:29:21.818Z,1018.95
2017-04-04T12:30:34.039Z,1018.97
2017-04-04T12:31:46.581Z,1018.99
2017-04-04T12:32:58.841Z,1019
2017-04-04T12:34:11.398Z,1018.97
2017-04-04T12:35:23.922Z,1018.96
2017-04-04T12:36:36.482Z,1018.97
2017-04-04T12:37:48.662Z,1018.93
2017-04-04T12:39:00.857Z,1018.91
2017-04-04T12:40:13.386Z,1018.92
2017-04-04T12:41:25.616Z,1018.93
2017-04-04T12:42:38.137Z,1018.91
2017-04-04T12:43:50.661Z,1018.92
2017-04-04T12:45:02.589Z,1018.94
2017-04-04T12:46:15.135Z,1018.94
2017-04-04T12:47:27.660Z,1018.91
2017-04-04T12:48:40.203Z,1018.88
2017-04-04T12:49:52.767Z,1018.91
2017-04-04T12:51:05.320Z,1018.87
2017-04-04T12:52:17.862Z,1018.84
2017-04-04T12:53:30.421Z,1018.87
2017-04-04T12:54:42.633Z,1018.85
2017-04-04T12:55:55.195Z,1018.85
2017-04-04T12:57:07.424Z,1018.8
2017-04-04T12:58:19.969Z,1018.82
2017-04-04T12:59:32.511Z,1018.81
2017-04-04T13:00:45.076Z,1018.83
2017-04-04T13:01:57.607Z,1018.74
2017-04-04T13:03:10.125Z,1018.75
2017-04-04T13:04:22.345Z,1018.72
2017-04-04T13:05:34.867Z,1018.72
2017-04-04T13:06:47.408Z,1018.71
2017-04-04T13:07:59.341Z,1018.75
2017-04-04T13:09:11.583Z,1018.69
2017-04-04T13:10:24.106Z,1018.65
2017-04-04T13:11:36.672Z,1018.63
2017-04-04T13:12:49.245Z,1018.58
2017-04-04T13:14:01.492Z,1018.55
2017-04-04T13:15:14.065Z,1018.56
2017-04-04T13:16:26.572Z,1018.58
2017-04-04T13:17:39.121Z,1018.57
2017-04-04T13:18:51.395Z,1018.59
2017-04-04T13:20:03.948Z,1018.64
2017-04-04T13:21:15.918Z,1018.63
2017-04-04T13:22:28.460Z,1018.64
2017-04-04T13:23:41.006Z,1018.57
2017-04-04T13:24:53.527Z,1018.56
2017-04-04T13:26:06.073Z,1018.55
2017-04-04T13:27:18.572Z,1018.55
2017-04-04T13:28:30.773Z,1018.51
2017-04-04T13:29:43.313Z,1018.48
2017-04-04T13:30:55.878Z,1018.47
2017-04-04T13:32:08.419Z,1018.44
2017-04-04T13:33:20.953Z,1018.5
2017-04-04T13:34:32.922Z,1018.46
2017-04-04T13:35:45.161Z,1018.51
2017-04-04T13:36:57.385Z,1018.49
2017-04-04T13:38:09.927Z,1018.52
2017-04-04T13:39:22.481Z,1018.5
2017-04-04T13:40:34.704Z,1018.54
2017-04-04T13:41:47.250Z,1018.55
2017-04-04T13:42:59.766Z,1018.52
2017-04-04T13:44:12.317Z,1018.55
2017-04-04T13:45:24.567Z,1018.58
2017-04-04T13:46:37.132Z,1018.58
2017-04-04T13:47:49.680Z,1018.56
2017-04-04T13:49:02.224Z,1018.59
2017-04-04T13:50:14.762Z,1018.56
2017-04-04T13:51:27.312Z,1018.55
2017-04-04T13:52:39.850Z,1018.54
2017-04-04T13:53:52.374Z,1018.53
2017-04-04T13:55:04.877Z,1018.55
2017-04-04T13:56:17.423Z,1018.52
2017-04-04T13:57:29.945Z,1018.52
2017-04-04T13:58:42.468Z,1018.46
2017-04-04T13:59:54.989Z,1018.44
2017-04-04T14:01:07.235Z,1018.41
2017-04-04T14:02:19.778Z,1018.4
2017-04-04T14:03:32.025Z,1018.36
2017-04-04T14:04:44.577Z,1018.42
2017-04-04T14:05:56.793Z,1018.41
2017-04-04T14:07:08.737Z,1018.41
2017-04-04T14:08:20.980Z,1018.38
2017-04-04T14:09:33.536Z,1018.37
2017-04-04T14:10:46.067Z,1018.38
2017-04-04T14:11:58.593Z,1018.4
2017-04-04T14:13:11.134Z,1018.4
2017-04-04T14:14:23.334Z,1018.43
2017-04-04T14:15:35.557Z,1018.39
2017-04-04T14:16:48.073Z,1018.43
2017-04-04T14:18:00.616Z,1018.38
2017-04-04T14:19:12.849Z,1018.44
2017-04-04T14:20:25.389Z,1018.46
2017-04-04T14:21:37.613Z,1018.5
2017-04-04T14:22:50.159Z,1018.45
2017-04-04T14:24:02.369Z,1018.44
2017-04-04T14:25:14.574Z,1018.45
2017-04-04T14:26:26.814Z,1018.41
2017-04-04T14:27:39.067Z,1018.46
2017-04-04T14:28:51.585Z,1018.49
2017-04-04T14:30:04.107Z,1018.52
2017-04-04T14:31:16.348Z,1018.52
2017-04-04T14:32:28.915Z,1018.52
2017-04-04T14:33:41.144Z,1018.44
2017-04-04T14:34:53.686Z,1018.45
2017-04-04T14:36:05.941Z,1018.42
2017-04-04T14:37:18.161Z,1018.45
2017-04-04T14:38:30.637Z,1018.47
2017-04-04T14:39:43.174Z,1018.51